Terminal Aerodrome Forecast
Issued by NWS Omaha/Valley, NE

Home | Current Version | Previous Version | Graphics & Text | Print | Product List | Glossary Off
Versions: 1 2 3 4 5 6 7 8 9 10 11 12 13 14 15 16 17 18 19 20 21 22 23 24 25 26 27 28 29

000
FTUS43 KOAX 250205 AAA
TAFOFK
TAF AMD
KOFK 250205Z 2502/2524 15013KT P6SM BKN250
      TEMPO 2505/2508 VRB15G25KT 6SM TSRA SCT050 BKN080CB
     FM251300 24013G22KT P6SM BKN150
     FM251500 27012G21KT P6SM BKN150
     FM251700 31012KT P6SM BKN150=

USA.gov is the U.S. government's official web portal to all federal, state and local government web resources and services.